ARG1612 SABE-SAZM
Flight info
| Callsign | ARG1612 |
|---|---|
| Flight time | N/A |
| Altitude | 33000 |
| Route | PTA8 GBE UW29 VOTRA VOTRA2U |
| Aircraft | B738/M-SDE2E3FGHIRWXY/LB1 |
Departure
| Time | 2026-05-03 22:17 |
|---|---|
| Airport | Aeroparque Jorge Newbery (SABE) |
Arrival
| Time | N/A |
|---|---|
| Airport | Ástor Piazzola International Airport (SAZM) |
| Time | Latitude | Longitude | Altitude | Speed | Heading |
|---|---|---|---|---|---|
| 2026-05-03 21:36 | -34.55629 | -58.41632 | 25 ft | 0 kts | 34° |
| 2026-05-03 22:06 | -34.55636 | -58.41638 | 29 ft | 3 kts | 33° |
| 2026-05-03 22:06 | -34.55653 | -58.41651 | 27 ft | 3 kts | 27° |
| 2026-05-03 22:06 | -34.55671 | -58.41660 | 29 ft | 3 kts | 8° |
| 2026-05-03 22:06 | -34.55687 | -58.41659 | 28 ft | 3 kts | 318° |
| 2026-05-03 22:07 | -34.55692 | -58.41654 | 29 ft | 0 kts | 304° |
| 2026-05-03 22:09 | -34.55680 | -58.41675 | 25 ft | 7 kts | 303° |
| 2026-05-03 22:09 | -34.55636 | -58.41751 | 26 ft | 14 kts | 304° |
| 2026-05-03 22:10 | -34.55709 | -58.41806 | 19 ft | 13 kts | 125° |
| 2026-05-03 22:10 | -34.55753 | -58.41711 | 28 ft | 13 kts | 116° |
| 2026-05-03 22:10 | -34.55792 | -58.41616 | 28 ft | 12 kts | 117° |
| 2026-05-03 22:10 | -34.55831 | -58.41523 | 26 ft | 12 kts | 116° |
| 2026-05-03 22:11 | -34.55869 | -58.41433 | 27 ft | 12 kts | 116° |
| 2026-05-03 22:11 | -34.55906 | -58.41346 | 25 ft | 12 kts | 118° |
| 2026-05-03 22:11 | -34.55947 | -58.41265 | 25 ft | 11 kts | 124° |
| 2026-05-03 22:11 | -34.55993 | -58.41190 | 24 ft | 11 kts | 128° |
| 2026-05-03 22:12 | -34.56038 | -58.41118 | 28 ft | 11 kts | 126° |
| 2026-05-03 22:12 | -34.56082 | -58.41047 | 25 ft | 10 kts | 127° |
| 2026-05-03 22:12 | -34.56124 | -58.40979 | 28 ft | 10 kts | 125° |
| 2026-05-03 22:12 | -34.56160 | -58.40909 | 26 ft | 10 kts | 118° |
| 2026-05-03 22:13 | -34.56173 | -58.40831 | 25 ft | 10 kts | 108° |
| 2026-05-03 22:13 | -34.56209 | -58.40764 | 25 ft | 9 kts | 123° |
| 2026-05-03 22:13 | -34.56244 | -58.40699 | 26 ft | 9 kts | 122° |
| 2026-05-03 22:13 | -34.56279 | -58.40637 | 27 ft | 9 kts | 126° |
| 2026-05-03 22:14 | -34.56314 | -58.40578 | 25 ft | 9 kts | 129° |
| 2026-05-03 22:14 | -34.56358 | -58.40530 | 25 ft | 8 kts | 139° |
| 2026-05-03 22:14 | -34.56401 | -58.40484 | 25 ft | 8 kts | 137° |
| 2026-05-03 22:14 | -34.56414 | -58.40470 | 25 ft | 0 kts | 137° |
| 2026-05-03 22:15 | -34.56439 | -58.40442 | 25 ft | 14 kts | 138° |
| 2026-05-03 22:15 | -34.56492 | -58.40386 | 26 ft | 7 kts | 145° |
| 2026-05-03 22:16 | -34.56538 | -58.40398 | 25 ft | 7 kts | 215° |
| 2026-05-03 22:16 | -34.56553 | -58.40450 | 25 ft | 8 kts | 292° |
| 2026-05-03 22:16 | -34.56467 | -58.40606 | 28 ft | 55 kts | 304° |
| 2026-05-03 22:16 | -34.56072 | -58.41314 | 28 ft | 144 kts | 303° |
| 2026-05-03 22:17 | -34.55412 | -58.42496 | 503 ft | 183 kts | 307° |
| 2026-05-03 22:17 | -34.54615 | -58.43710 | 1721 ft | 181 kts | 323° |
| 2026-05-03 22:17 | -34.53483 | -58.44197 | 2982 ft | 178 kts | 357° |
| 2026-05-03 22:17 | -34.52176 | -58.43955 | 3504 ft | 208 kts | 17° |
| 2026-05-03 22:18 | -34.50948 | -58.42826 | 3818 ft | 238 kts | 50° |
| 2026-05-03 22:18 | -34.50229 | -58.40955 | 4409 ft | 253 kts | 74° |
| 2026-05-03 22:18 | -34.50149 | -58.38809 | 4981 ft | 260 kts | 98° |
| 2026-05-03 22:18 | -34.50590 | -58.36601 | 5051 ft | 281 kts | 107° |
| 2026-05-03 22:19 | -34.51180 | -58.34327 | 5069 ft | 283 kts | 108° |
| 2026-05-03 22:19 | -34.51770 | -58.32044 | 5078 ft | 284 kts | 107° |
| 2026-05-03 22:19 | -34.52341 | -58.29759 | 5123 ft | 285 kts | 107° |
| 2026-05-03 22:19 | -34.53145 | -58.27568 | 5705 ft | 287 kts | 132° |